Time;durP1;ratioP1;P1;durP2;ratioP2;P2;SDS_P1;SDS_P2;PMS_P1;PMS_P2;Temp;Humidity;BMP_temperature;BMP_pressure;BME280_temperature;BME280_humidity;BME280_pressure;Samples;Min_cycle;Max_cycle;Signal;HPM_P1;HPM_P2
2022/08/24 00:03:48;;;;;;;10.57;5.15;;;20.40;99.90;;;;;;10532847;28;20596;-77
2022/08/24 00:09:10;;;;;;;11.00;5.65;;;20.40;99.90;;;;;;10562605;28;20198;-78
2022/08/24 00:14:31;;;;;;;10.80;5.90;;;20.30;99.90;;;;;;10521743;28;20191;-79
2022/08/24 00:19:53;;;;;;;11.35;6.03;;;20.30;99.90;;;;;;10520776;28;20230;-78
2022/08/24 00:25:16;;;;;;;11.93;5.72;;;20.20;99.90;;;;;;10521535;28;20413;-78
2022/08/24 00:30:38;;;;;;;13.13;6.10;;;20.10;99.90;;;;;;10520027;28;20237;-77
2022/08/24 00:35:59;;;;;;;15.23;5.78;;;20.10;99.90;;;;;;10506664;28;20191;-78
2022/08/24 00:41:21;;;;;;;8.02;5.53;;;20.00;99.90;;;;;;10519832;28;20191;-76
2022/08/24 00:47:01;;;;;;;8.55;5.55;;;20.00;99.90;;;;;;10520877;28;20421;-77
2022/08/24 00:52:32;;;;;;;7.30;5.28;;;20.00;99.90;;;;;;10520483;28;20260;-77
2022/08/24 00:57:59;;;;;;;6.93;4.93;;;20.00;99.90;;;;;;10519261;28;20191;-78
2022/08/24 01:03:20;;;;;;;8.35;5.13;;;19.90;99.90;;;;;;10490397;28;20222;-76
2022/08/24 01:08:43;;;;;;;7.13;5.28;;;19.90;99.90;;;;;;10561253;28;20274;-80
2022/08/24 01:14:05;;;;;;;6.22;4.85;;;;;;;;;;10519358;28;20501;-76
2022/08/24 01:19:43;;;;;;;11.07;5.97;;;19.90;99.90;;;;;;10521976;28;20483;-82
2022/08/24 01:25:06;;;;;;;10.15;5.57;;;19.70;99.90;;;;;;10518572;28;20272;-77
2022/08/24 01:30:27;;;;;;;11.00;5.28;;;19.80;99.90;;;;;;10518632;28;20222;-81
2022/08/24 01:35:53;;;;;;;8.27;5.38;;;19.70;99.90;;;;;;10518746;28;20202;-76
2022/08/24 01:41:14;;;;;;;10.07;5.43;;;19.70;99.90;;;;;;10518186;28;20385;-76
2022/08/24 01:46:36;;;;;;;8.30;5.68;;;19.70;99.90;;;;;;10518482;28;20234;-77
2022/08/24 01:51:58;;;;;;;7.72;5.65;;;19.70;99.90;;;;;;10518304;28;20187;-77
2022/08/24 01:57:22;;;;;;;13.57;7.03;;;19.60;99.90;;;;;;10518041;28;20207;-77
2022/08/24 02:02:45;;;;;;;8.15;5.93;;;19.60;99.90;;;;;;10519582;28;20223;-77
2022/08/24 02:08:06;;;;;;;8.20;6.15;;;19.60;99.90;;;;;;10545206;28;20205;-77
2022/08/24 02:13:27;;;;;;;13.18;5.85;;;19.60;99.90;;;;;;10467310;28;20495;-77
2022/08/24 02:18:48;;;;;;;9.65;6.03;;;19.60;99.90;;;;;;10476921;28;20191;-77
2022/08/24 02:24:11;;;;;;;15.65;6.93;;;19.60;99.90;;;;;;10461745;28;20227;-78
2022/08/24 02:29:32;;;;;;;13.18;7.70;;;19.60;99.90;;;;;;10495593;28;20192;-77
2022/08/24 02:34:53;;;;;;;12.73;6.75;;;19.50;99.90;;;;;;10503145;28;20199;-77
2022/08/24 02:40:15;;;;;;;11.65;6.40;;;19.60;99.90;;;;;;10518245;28;20266;-77
2022/08/24 02:45:39;;;;;;;11.88;6.80;;;19.60;99.90;;;;;;10508699;28;20269;-77
2022/08/24 02:51:01;;;;;;;12.35;7.20;;;19.70;99.90;;;;;;10524401;28;20191;-78
2022/08/24 02:56:23;;;;;;;15.40;7.28;;;19.70;99.90;;;;;;10524302;28;20191;-77
2022/08/24 03:01:44;;;;;;;9.57;6.15;;;19.70;99.90;;;;;;10523935;28;20275;-77
2022/08/24 03:07:06;;;;;;;14.43;6.75;;;19.70;99.90;;;;;;10561748;28;20186;-79
2022/08/24 03:12:28;;;;;;;11.48;6.70;;;19.70;99.90;;;;;;10538486;28;20198;-79
2022/08/24 03:17:49;;;;;;;11.30;6.75;;;19.70;99.90;;;;;;10509324;28;20493;-76
2022/08/24 03:23:13;;;;;;;11.98;7.10;;;19.70;99.90;;;;;;10509261;28;20242;-80
2022/08/24 03:28:35;;;;;;;15.57;7.75;;;19.70;99.90;;;;;;10508689;28;20202;-77
2022/08/24 03:33:56;;;;;;;13.75;7.63;;;19.70;99.90;;;;;;10522663;28;20211;-77
2022/08/24 03:39:17;;;;;;;12.30;7.00;;;19.70;99.90;;;;;;10522617;28;20190;-76
2022/08/24 03:44:42;;;;;;;11.38;7.55;;;19.60;99.90;;;;;;10494552;28;20223;-77
2022/08/24 03:50:06;;;;;;;14.02;11.23;;;19.70;99.90;;;;;;10493711;28;20246;-79
2022/08/24 03:55:28;;;;;;;14.73;8.50;;;19.70;99.90;;;;;;10508032;28;20196;-77
2022/08/24 04:00:50;;;;;;;9.68;6.70;;;19.70;99.90;;;;;;10521808;28;20198;-78
2022/08/24 04:06:13;;;;;;;7.45;6.22;;;19.80;99.90;;;;;;10537298;28;20407;-77
2022/08/24 04:11:35;;;;;;;10.00;5.93;;;19.80;99.90;;;;;;10542623;28;20195;-77
2022/08/24 04:16:59;;;;;;;5.57;5.07;;;19.80;99.90;;;;;;10493132;28;20199;-77
2022/08/24 04:22:30;;;;;;;11.02;6.03;;;19.90;99.90;;;;;;10506072;28;20269;-76
2022/08/24 04:27:51;;;;;;;7.05;5.97;;;20.00;99.90;;;;;;10506505;28;20245;-76
2022/08/24 04:33:13;;;;;;;5.68;5.07;;;20.00;99.90;;;;;;10505716;28;20233;-78
2022/08/24 04:38:37;;;;;;;10.13;5.75;;;20.10;99.90;;;;;;10520284;28;20209;-77
2022/08/24 04:44:14;;;;;;;7.45;5.45;;;20.10;99.90;;;;;;10493873;28;20226;-77
2022/08/24 04:49:37;;;;;;;10.82;6.28;;;20.10;99.90;;;;;;10505792;28;20195;-76
2022/08/24 04:54:59;;;;;;;10.85;6.38;;;20.20;99.90;;;;;;10491478;28;20195;-77
2022/08/24 05:00:21;;;;;;;9.75;6.20;;;20.20;99.90;;;;;;10505633;28;20236;-77
2022/08/24 05:05:45;;;;;;;8.45;5.10;;;20.30;99.90;;;;;;10544854;28;20276;-78
2022/08/24 05:11:07;;;;;;;8.10;5.45;;;20.30;99.90;;;;;;10544483;28;20270;-76
2022/08/24 05:16:31;;;;;;;4.78;4.35;;;20.30;99.90;;;;;;10519051;28;20195;-76
2022/08/24 05:21:52;;;;;;;6.03;4.50;;;20.40;99.90;;;;;;10519017;28;20218;-77
2022/08/24 05:27:15;;;;;;;8.23;4.72;;;20.40;99.90;;;;;;10490676;28;20210;-76
2022/08/24 05:32:37;;;;;;;5.68;4.70;;;20.50;99.90;;;;;;10518470;28;20211;-77
2022/08/24 05:37:58;;;;;;;7.13;5.00;;;20.60;99.90;;;;;;10518856;28;20211;-76
2022/08/24 05:43:27;;;;;;;5.65;4.70;;;20.70;99.90;;;;;;10504316;28;20231;-77
2022/08/24 05:48:48;;;;;;;5.30;4.32;;;20.80;99.90;;;;;;10518446;28;20213;-76
2022/08/24 05:54:25;;;;;;;5.30;4.43;;;21.10;99.90;;;;;;10518265;28;20213;-76
2022/08/24 05:59:53;;;;;;;7.03;5.30;;;21.40;99.90;;;;;;10518024;28;20187;-77
2022/08/24 06:05:15;;;;;;;5.57;4.22;;;21.60;99.90;;;;;;10526240;28;20222;-77
2022/08/24 06:10:43;;;;;;;6.10;4.80;;;21.70;99.90;;;;;;10547330;28;20498;-76
2022/08/24 06:16:12;;;;;;;6.88;4.95;;;21.70;99.90;;;;;;10517655;28;20245;-77
2022/08/24 06:21:45;;;;;;;9.25;5.15;;;22.50;99.90;;;;;;10512770;28;20227;-77
2022/08/24 06:27:22;;;;;;;10.85;5.20;;;23.10;99.90;;;;;;10511369;28;20223;-78
2022/08/24 06:32:46;;;;;;;10.02;6.65;;;23.40;99.90;;;;;;10524856;28;20248;-78
2022/08/24 06:38:30;;;;;;;21.75;10.38;;;23.50;99.90;;;;;;10525673;28;20210;-77
2022/08/24 06:43:52;;;;;;;14.07;7.50;;;23.50;99.90;;;;;;10524433;28;20214;-77
2022/08/24 06:49:18;;;;;;;16.80;9.63;;;23.70;99.90;;;;;;10524173;28;20354;-76
2022/08/24 06:54:39;;;;;;;13.25;6.07;;;23.40;99.90;;;;;;10524420;28;20191;-79
2022/08/24 07:00:03;;;;;;;10.10;5.55;;;23.30;99.90;;;;;;10509522;28;20198;-78
2022/08/24 07:05:25;;;;;;;9.07;4.57;;;24.80;99.90;;;;;;10533303;28;20233;-77
2022/08/24 07:11:05;;;;;;;12.82;5.90;;;25.10;99.90;;;;;;10550147;28;20533;-78
2022/08/24 07:16:27;;;;;;;19.63;10.30;;;25.20;99.90;;;;;;10523289;28;20186;-77
2022/08/24 07:21:57;;;;;;;15.45;9.15;;;24.80;99.90;;;;;;10523039;28;20254;-77
2022/08/24 07:27:22;;;;;;;13.85;9.02;;;24.30;99.90;;;;;;10508385;28;20235;-78
2022/08/24 07:32:43;;;;;;;7.57;5.72;;;24.00;99.90;;;;;;10522653;28;20195;-77
2022/08/24 07:38:06;;;;;;;9.57;3.65;;;25.60;99.90;;;;;;10522208;28;20187;-78
2022/08/24 07:43:28;;;;;;;9.60;4.25;;;26.10;99.90;;;;;;10493727;28;20408;-78
2022/08/24 07:48:49;;;;;;;6.38;4.28;;;;;;;;;;10507816;28;20199;-77
2022/08/24 07:54:13;;;;;;;6.93;3.10;;;27.50;99.90;;;;;;10508165;28;20197;-78
2022/08/24 07:59:36;;;;;;;7.13;3.40;;;28.60;98.10;;;;;;10521805;28;20195;-76
2022/08/24 08:04:59;;;;;;;9.20;4.57;;;28.20;98.30;;;;;;10534620;28;20404;-77
2022/08/24 08:10:22;;;;;;;11.40;4.75;;;27.40;99.90;;;;;;10552873;28;20585;-76
2022/08/24 08:15:45;;;;;;;8.30;3.85;;;26.70;99.90;;;;;;10520943;28;20524;-77
2022/08/24 08:24:13;;;;;;;6.38;3.83;;;27.00;99.90;;;;;;10506192;28;20235;-78
2022/08/24 08:26:50;;;;;;;5.50;3.60;;;28.50;97.40;;;;;;10506067;28;20230;-77
2022/08/24 08:32:23;;;;;;;8.02;3.72;;;28.40;96.00;;;;;;10520336;28;20198;-77
2022/08/24 08:37:45;;;;;;;5.97;3.33;;;28.70;95.90;;;;;;10521203;28;20222;-77
2022/08/24 08:43:12;;;;;;;8.90;3.13;;;30.00;91.90;;;;;;10518811;28;20210;-77
2022/08/24 08:48:55;;;;;;;6.00;3.35;;;30.50;88.40;;;;;;10519823;28;20393;-77
2022/08/24 08:54:46;;;;;;;9.63;3.25;;;30.50;87.40;;;;;;10519306;28;20257;-78
2022/08/24 09:00:17;;;;;;;7.97;3.22;;;31.30;78.60;;;;;;10519796;28;20191;-78
2022/08/24 09:06:08;;;;;;;7.13;4.30;;;32.20;71.10;;;;;;10545519;28;20245;-78
2022/08/24 09:11:41;;;;;;;12.38;4.28;;;32.90;64.10;;;;;;10541063;28;20191;-78
2022/08/24 09:17:26;;;;;;;8.93;4.00;;;33.40;50.50;;;;;;10518852;28;20199;-77
2022/08/24 09:22:54;;;;;;;10.02;3.92;;;33.20;47.90;;;;;;10517998;28;20242;-78
2022/08/24 09:28:46;;;;;;;9.82;3.70;;;33.50;42.70;;;;;;10518625;28;20195;-77
2022/08/24 09:34:49;;;;;;;12.98;8.32;;;33.50;39.70;;;;;;10519675;28;20191;-79
2022/08/24 09:40:30;;;;;;;6.13;3.20;;;34.00;36.60;;;;;;10517949;28;20245;-78
2022/08/24 09:46:10;;;;;;;10.50;3.50;;;34.00;33.20;;;;;;10519134;28;20272;-79
2022/08/24 09:51:59;;;;;;;9.48;3.95;;;34.20;32.00;;;;;;10520834;28;20199;-79
2022/08/24 09:57:23;;;;;;;9.68;4.97;;;33.40;32.60;;;;;;10526523;28;20210;-78
2022/08/24 10:02:54;;;;;;;14.63;6.20;;;32.80;35.40;;;;;;10527782;28;20206;-78
2022/08/24 10:08:25;;;;;;;5.22;3.50;;;32.20;39.70;;;;;;10568961;28;20489;-78
2022/08/24 10:14:12;;;;;;;7.88;4.03;;;31.50;48.50;;;;;;10528677;28;20279;-79
2022/08/24 10:20:11;;;;;;;8.25;4.15;;;31.20;53.70;;;;;;10439983;28;20235;-78
2022/08/24 10:25:45;;;;;;;7.35;3.75;;;31.70;51.70;;;;;;10439791;28;20220;-78
2022/08/24 10:31:18;;;;;;;10.15;4.20;;;32.70;43.10;;;;;;10439699;28;20213;-77
2022/08/24 10:36:49;;;;;;;8.98;3.35;;;33.40;32.80;;;;;;10425494;28;20211;-77
2022/08/24 10:48:40;;;;;;;10.15;6.13;;;33.40;34.30;;;;;;10439502;28;20530;-77
2022/08/24 10:54:03;;;;;;;9.68;4.57;;;32.70;35.70;;;;;;10463923;28;20211;-77
2022/08/24 10:59:35;;;;;;;7.45;3.25;;;31.40;44.90;;;;;;10525012;28;20543;-77
2022/08/24 11:04:59;;;;;;;8.10;3.67;;;30.00;57.70;;;;;;10521908;28;20222;-77
2022/08/24 11:10:26;;;;;;;8.82;3.20;;;29.40;70.90;;;;;;10556533;28;20195;-77
2022/08/24 11:15:52;;;;;;;10.13;4.13;;;29.00;79.30;;;;;;10523298;28;20274;-78
2022/08/24 11:21:40;;;;;;;6.25;3.03;;;28.90;81.50;;;;;;10508786;28;20302;-78
2022/08/24 11:27:29;;;;;;;5.85;3.20;;;28.80;82.10;;;;;;10522480;28;20246;-77
2022/08/24 11:32:55;;;;;;;11.52;3.22;;;28.60;83.60;;;;;;10522413;28;20196;-77
2022/08/24 11:38:31;;;;;;;12.15;4.53;;;28.70;89.70;;;;;;10523716;28;20187;-81
2022/08/24 11:43:58;;;;;;;19.25;8.70;;;28.60;92.10;;;;;;10523300;28;20219;-77
2022/08/24 11:49:48;;;;;;;10.40;4.63;;;28.70;93.30;;;;;;10521576;28;20392;-77
2022/08/24 11:56:00;;;;;;;11.25;4.60;;;28.90;92.00;;;;;;10522910;28;20226;-78
2022/08/24 12:01:38;;;;;;;14.85;4.80;;;29.80;90.50;;;;;;10436139;28;20565;-78
2022/08/24 12:07:17;;;;;;;12.07;7.28;;;29.60;90.30;;;;;;10472272;28;20220;-78
2022/08/24 12:12:52;;;;;;;10.25;4.70;;;29.60;88.60;;;;;;10434255;28;20279;-78
2022/08/24 12:18:25;;;;;;;9.93;5.15;;;29.40;90.90;;;;;;10435528;28;20200;-77
2022/08/24 12:23:58;;;;;;;11.95;4.63;;;29.00;91.90;;;;;;10421378;28;20227;-77
2022/08/24 12:29:36;;;;;;;14.05;5.82;;;28.90;92.50;;;;;;10421447;28;20205;-78
2022/08/24 12:35:20;;;;;;;14.77;4.53;;;28.80;93.30;;;;;;10462486;28;20257;-78
2022/08/24 12:40:51;;;;;;;10.23;3.75;;;28.80;94.50;;;;;;10505981;28;20198;-78
2022/08/24 12:46:16;;;;;;;13.75;5.68;;;28.80;94.40;;;;;;10519604;28;20219;-78
2022/08/24 12:51:47;;;;;;;5.97;3.88;;;29.10;93.20;;;;;;10520790;28;20195;-79
2022/08/24 12:57:12;;;;;;;7.18;3.63;;;29.50;92.50;;;;;;10520316;28;20195;-78
2022/08/24 13:02:40;;;;;;;9.32;4.35;;;29.50;92.20;;;;;;10519398;28;20224;-79
2022/08/24 13:08:14;;;;;;;11.75;7.13;;;29.00;92.60;;;;;;10478609;28;20223;-77
2022/08/24 13:13:41;;;;;;;24.45;12.13;;;28.40;94.70;;;;;;10518675;28;20206;-79
2022/08/24 13:19:16;;;;;;;15.77;7.63;;;27.90;95.40;;;;;;10519586;28;20235;-77
2022/08/24 13:24:57;;;;;;;18.13;4.97;;;27.70;97.60;;;;;;10519045;28;20222;-82
2022/08/24 13:30:26;;;;;;;12.77;4.25;;;27.50;97.80;;;;;;10519116;28;20490;-79
2022/08/24 13:35:55;;;;;;;11.63;3.83;;;27.40;98.90;;;;;;10519597;28;20221;-77
2022/08/24 13:41:46;;;;;;;10.57;3.67;;;27.40;99.00;;;;;;10519570;28;20192;-77
2022/08/24 13:47:22;;;;;;;10.52;4.05;;;27.30;99.00;;;;;;10517895;28;20261;-78
2022/08/24 13:53:16;;;;;;;11.35;4.55;;;27.20;98.90;;;;;;10519372;28;20191;-78
2022/08/24 13:58:50;;;;;;;9.60;4.40;;;27.20;99.30;;;;;;10504028;28;20199;-78
2022/08/24 14:04:23;;;;;;;6.60;3.70;;;27.30;99.30;;;;;;10531396;28;20249;-78
2022/08/24 14:09:54;;;;;;;9.88;3.50;;;27.40;99.30;;;;;;10555404;28;20494;-79
2022/08/24 14:17:50;;;;;;;11.07;4.90;;;27.30;99.20;;;;;;10518798;28;20202;-78
2022/08/24 14:21:50;;;;;;;9.95;4.00;;;27.30;99.40;;;;;;10518025;28;20242;-79
2022/08/24 14:28:07;;;;;;;12.93;4.38;;;27.20;99.90;;;;;;10518663;28;20409;-77
2022/08/24 14:33:34;;;;;;;10.15;4.18;;;27.40;99.40;;;;;;10517392;28;20202;-78
2022/08/24 14:39:04;;;;;;;9.82;4.03;;;27.40;99.50;;;;;;10520423;28;20195;-79
2022/08/24 14:44:56;;;;;;;8.82;4.18;;;27.50;99.50;;;;;;10525483;28;20235;-77
2022/08/24 14:50:59;;;;;;;16.67;3.78;;;27.50;99.90;;;;;;10524408;28;20210;-78
2022/08/24 14:56:47;;;;;;;7.72;3.50;;;27.20;99.70;;;;;;10524063;28;20191;-79
2022/08/24 15:02:27;;;;;;;7.53;3.80;;;26.90;99.90;;;;;;10510269;28;20569;-79
2022/08/24 15:07:59;;;;;;;13.40;3.67;;;26.90;99.90;;;;;;10483454;28;20223;-80
2022/08/24 15:13:30;;;;;;;8.88;3.80;;;26.90;99.90;;;;;;10522924;28;20210;-78
2022/08/24 15:19:01;;;;;;;6.47;3.28;;;26.90;99.90;;;;;;10524372;28;20199;-79
2022/08/24 15:24:56;;;;;;;6.78;3.13;;;26.80;99.90;;;;;;10522976;28;20257;-79
2022/08/24 15:30:26;;;;;;;6.68;3.20;;;26.70;99.90;;;;;;10508869;28;20244;-78
2022/08/24 15:36:02;;;;;;;8.52;3.50;;;26.60;99.90;;;;;;10523973;28;20199;-79
2022/08/24 15:41:29;;;;;;;9.95;3.72;;;26.60;99.90;;;;;;10523662;28;20483;-80
2022/08/24 15:47:13;;;;;;;7.07;2.90;;;26.60;99.90;;;;;;10522677;28;20233;-78
2022/08/24 15:52:37;;;;;;;9.82;3.00;;;26.70;99.90;;;;;;10522815;28;20262;-78
2022/08/24 15:58:18;;;;;;;8.05;3.05;;;26.30;99.90;;;;;;10522809;28;20198;-80
2022/08/24 16:03:55;;;;;;;5.82;2.90;;;26.20;99.90;;;;;;10530602;28;20217;-77
2022/08/24 16:09:28;;;;;;;7.30;3.25;;;26.30;99.90;;;;;;10562068;28;20210;-78
2022/08/24 16:15:06;;;;;;;4.93;3.03;;;26.20;99.90;;;;;;10522634;28;20191;-78
2022/08/24 16:20:32;;;;;;;9.35;4.95;;;26.10;99.90;;;;;;10522071;28;20293;-82
2022/08/24 16:26:18;;;;;;;5.63;3.08;;;26.00;99.90;;;;;;10520744;28;20223;-83
2022/08/24 16:31:40;;;;;;;9.40;3.17;;;25.90;99.90;;;;;;10521352;28;20222;-80
2022/08/24 16:37:03;;;;;;;6.53;3.30;;;25.60;99.90;;;;;;10521469;28;20198;-79
2022/08/24 16:42:27;;;;;;;14.95;4.50;;;25.20;99.90;;;;;;10520489;28;20199;-78
2022/08/24 16:47:49;;;;;;;5.80;2.60;;;25.00;99.90;;;;;;10520948;28;20282;-78
2022/08/24 16:53:10;;;;;;;7.15;3.50;;;24.80;99.90;;;;;;10520636;28;20531;-80
2022/08/24 16:58:33;;;;;;;6.45;3.00;;;24.60;99.90;;;;;;10519614;28;20195;-78
2022/08/24 17:03:54;;;;;;;8.13;3.50;;;24.60;99.90;;;;;;10530929;28;20244;-78
2022/08/24 17:09:17;;;;;;;8.88;3.33;;;24.50;99.90;;;;;;10560149;28;20500;-78
2022/08/24 17:14:38;;;;;;;6.82;3.00;;;24.40;99.90;;;;;;10518748;28;20210;-77
2022/08/24 17:20:01;;;;;;;4.45;2.85;;;24.30;99.90;;;;;;10518834;28;20250;-79
2022/08/24 17:25:24;;;;;;;11.10;3.78;;;24.20;99.90;;;;;;10519991;28;20262;-79
2022/08/24 17:30:46;;;;;;;7.75;3.63;;;24.10;99.90;;;;;;10519869;28;20215;-77
2022/08/24 17:36:11;;;;;;;7.35;3.35;;;24.00;99.90;;;;;;10519591;28;20244;-81
2022/08/24 17:41:33;;;;;;;9.80;3.80;;;23.90;99.90;;;;;;10519718;28;20237;-78
2022/08/24 17:46:58;;;;;;;7.38;3.47;;;23.80;99.90;;;;;;10519569;28;20230;-79
2022/08/24 17:52:19;;;;;;;9.55;3.70;;;23.70;99.90;;;;;;10519380;28;20191;-78
2022/08/24 17:57:41;;;;;;;7.85;3.22;;;23.50;99.90;;;;;;10519310;28;20195;-78
2022/08/24 18:03:05;;;;;;;9.48;3.25;;;23.40;99.90;;;;;;10523582;28;20251;-77
2022/08/24 18:08:27;;;;;;;6.03;3.08;;;23.30;99.90;;;;;;10559728;28;20230;-80
2022/08/24 18:13:48;;;;;;;11.25;3.15;;;23.20;99.90;;;;;;10525266;28;20369;-79
2022/08/24 18:19:12;;;;;;;6.93;3.88;;;23.20;99.90;;;;;;10525357;28;20247;-77
2022/08/24 18:24:33;;;;;;;7.47;3.45;;;23.10;99.90;;;;;;10511314;28;20278;-78
2022/08/24 18:29:59;;;;;;;6.22;3.85;;;23.00;99.90;;;;;;10511412;28;20266;-79
2022/08/24 18:35:21;;;;;;;5.25;3.55;;;23.10;99.90;;;;;;10525298;28;20380;-79
2022/08/24 18:40:43;;;;;;;6.90;3.58;;;23.00;99.90;;;;;;10525481;28;20553;-78
2022/08/24 18:46:04;;;;;;;7.13;3.83;;;22.90;99.90;;;;;;10526082;28;20457;-79
2022/08/24 18:51:37;;;;;;;7.28;3.65;;;22.90;99.90;;;;;;10525932;28;20191;-77
2022/08/24 18:56:58;;;;;;;4.53;3.30;;;22.80;99.90;;;;;;10525336;28;20199;-79
2022/08/24 19:02:34;;;;;;;6.25;3.95;;;22.70;99.90;;;;;;10525149;28;20241;-78
2022/08/24 19:07:55;;;;;;;7.50;3.42;;;22.60;99.90;;;;;;10496688;28;20544;-80
2022/08/24 19:13:18;;;;;;;9.43;3.83;;;22.50;99.90;;;;;;10516828;28;20373;-77
2022/08/24 19:18:39;;;;;;;4.85;3.70;;;22.40;99.90;;;;;;10523427;28;20206;-80
2022/08/24 19:24:02;;;;;;;14.30;6.05;;;22.40;99.90;;;;;;10523285;28;20749;-79
2022/08/24 19:29:23;;;;;;;6.57;4.82;;;22.30;99.90;;;;;;10523086;28;20187;-78
2022/08/24 19:34:59;;;;;;;10.48;5.82;;;22.20;99.90;;;;;;10523999;28;20195;-78
2022/08/24 19:40:20;;;;;;;9.95;5.03;;;22.10;99.90;;;;;;10523851;28;20183;-79
2022/08/24 19:51:22;;;;;;;13.65;5.75;;;22.00;99.90;;;;;;10523697;28;20489;-81
2022/08/24 19:56:44;;;;;;;8.13;4.22;;;;;;;;;;10522125;28;20209;-80
2022/08/24 20:02:06;;;;;;;6.72;3.88;;;22.00;99.90;;;;;;10521711;28;20199;-81
2022/08/24 20:07:27;;;;;;;8.80;4.57;;;22.00;99.90;;;;;;10562537;28;20405;-78
2022/08/24 20:12:49;;;;;;;7.90;5.38;;;21.90;99.90;;;;;;10533659;28;20199;-78
2022/08/24 20:18:12;;;;;;;8.35;4.95;;;21.70;99.90;;;;;;10522445;28;20202;-77
2022/08/24 20:23:34;;;;;;;10.32;4.68;;;;;;;;;;10520865;28;20530;-77
2022/08/24 20:28:57;;;;;;;9.23;4.90;;;;;;;;;;10520989;28;20411;-77
2022/08/24 20:34:19;;;;;;;12.07;5.13;;;;;;;;;;10480241;28;20190;-77
2022/08/24 20:39:41;;;;;;;9.77;5.68;;;;;;;;;;10506666;28;20196;-77
2022/08/24 20:45:03;;;;;;;7.25;4.80;;;21.70;99.90;;;;;;10479583;28;20215;-77
2022/08/24 20:50:26;;;;;;;10.63;4.80;;;;;;;;;;10479611;28;20199;-77
2022/08/24 20:55:47;;;;;;;8.80;5.22;;;21.30;99.90;;;;;;10479506;28;20537;-77
2022/08/24 21:01:09;;;;;;;6.75;4.63;;;21.20;99.90;;;;;;10490580;28;20195;-77
2022/08/24 21:06:32;;;;;;;9.02;4.75;;;21.10;99.90;;;;;;10553605;28;20512;-77
2022/08/24 21:11:53;;;;;;;9.02;4.90;;;21.10;99.90;;;;;;10539218;28;20222;-78
2022/08/24 21:17:15;;;;;;;15.13;5.35;;;21.00;99.90;;;;;;10520352;28;20198;-77
2022/08/24 21:22:37;;;;;;;12.25;5.53;;;21.00;99.90;;;;;;10519937;28;20231;-77
2022/08/24 21:28:00;;;;;;;8.20;4.85;;;21.10;99.90;;;;;;10519790;28;20222;-78
2022/08/24 21:39:01;;;;;;;11.38;4.72;;;;;;;;;;10519863;28;20195;-78
2022/08/24 21:44:25;;;;;;;7.53;4.53;;;;;;;;;;10519674;28;20214;-77
2022/08/24 21:49:47;;;;;;;13.32;5.50;;;;;;;;;;10524422;28;20405;-78
2022/08/24 21:55:09;;;;;;;9.77;4.70;;;;;;;;;;10528124;28;20489;-77
2022/08/24 22:00:34;;;;;;;7.95;4.40;;;;;;;;;;10527633;28;20199;-77
2022/08/24 22:05:56;;;;;;;10.30;4.30;;;;;;;;;;10555849;28;20230;-77
2022/08/24 22:11:18;;;;;;;5.55;4.05;;;;;;;;;;10551051;28;20202;-77
2022/08/24 22:16:41;;;;;;;9.70;4.38;;;;;;;;;;10527257;28;20199;-77
2022/08/24 22:22:02;;;;;;;9.45;4.63;;;;;;;;;;10525928;28;20234;-78
2022/08/24 22:27:24;;;;;;;7.50;3.70;;;;;;;;;;10525701;28;20233;-77
2022/08/24 22:32:46;;;;;;;8.35;4.20;;;;;;;;;;10525446;28;20209;-77
2022/08/24 22:38:08;;;;;;;7.80;4.15;;;21.00;99.90;;;;;;10526512;28;20199;-78
2022/08/24 22:44:17;;;;;;;11.63;4.22;;;21.00;99.90;;;;;;10525089;28;20217;-78
2022/08/24 22:49:10;;;;;;;11.77;4.65;;;20.90;99.90;;;;;;10524510;28;20407;-79
2022/08/24 22:54:33;;;;;;;10.30;4.75;;;20.80;99.90;;;;;;10525585;28;20213;-79
2022/08/24 22:59:55;;;;;;;6.00;3.97;;;20.80;99.90;;;;;;10509160;28;20195;-78
2022/08/24 23:05:16;;;;;;;12.43;4.82;;;20.90;99.90;;;;;;10547859;28;20261;-80
2022/08/24 23:10:38;;;;;;;10.63;3.88;;;20.70;99.90;;;;;;10554661;28;20199;-77
2022/08/24 23:16:00;;;;;;;6.63;3.67;;;20.80;99.90;;;;;;10524856;28;20187;-78
2022/08/24 23:21:23;;;;;;;7.40;3.58;;;;;;;;;;10523608;28;20227;-77
2022/08/24 23:26:45;;;;;;;4.72;3.28;;;;;;;;;;10524460;28;20401;-77
2022/08/24 23:32:07;;;;;;;5.00;2.83;;;;;;;;;;10524360;28;20195;-77
2022/08/24 23:37:29;;;;;;;9.18;3.75;;;;;;;;;;10522975;28;20203;-76
2022/08/24 23:42:51;;;;;;;6.70;3.83;;;;;;;;;;10522896;28;20199;-77
2022/08/24 23:48:13;;;;;;;11.45;3.90;;;;;;;;;;10523524;28;20401;-76
2022/08/24 23:53:35;;;;;;;6.60;3.70;;;;;;;;;;10522666;28;20191;-76
2022/08/24 23:59:03;;;;;;;8.82;3.83;;;20.90;99.90;;;;;;10523456;28;20200;-77
